Metar Aviation Weather Data LEBL

22°C Temp
17°C Dewpoint
% Humidity
Temperature
5 KM/H
3 MPH
3 KTS
290°
West North
West

Wind Speed
Clear
Conditions
Pressure 1016.92 (hPa) - 30.03 (in)
Visibility 6.2 (mi) - 10.0 (km)

Current Conditions
LEBL
6 km (3.2 mi)
Metar :LEBL 290730Z 29003KT 240V340 CAVOK 22/17 Q1017 NOSIG
Fri 29th May 09:30 am

Airport
  Metar Aviation API Data Provided by https://www.checkwx.com/ PHP scripts by weather34.com ©2020